»·PEaware :: N338 L52-L88

N338 :: L52-L88

FLIGHT INFORMATION

Flight Status: Arrived
Operator: Privately registered:
United States
More flights under this callsign
Pilot: Jason S. (22976)
Aircraft: CESSNA 172 SKYHAWK
(C172)
More flights by this aircraft type
Origin: L52 Oceano Co
United States
Destination: L88 New Cuyama
United States
More flights between these airports :: More routes between these airports
Route: DCT
File this flight plan on PilotEdge
Remarks: beginner online - CAT 01 Flight Practise
Altitude:
(Current/Filed)
5,500ft
Speed:
(Current/Filed)
0kts
Departed: 12-Jan-19 04:39 AM
Arrived: 12-Jan-19 05:11 AM
Distance/Time
Traveled:
47nm/0:32
Distance/Time
To Go:
Arrived

Flight Plot

Page will automatically refresh every two minutes.


Map Options




Map Legend


Flown Route
Filed Route
Departure Airport
Arrival Airport
Navaid (VOR, NDB)
Fix

Horizontal Profiles

Position Reports

Time Latitude Longitude Heading Altitude Ground
Speed
12-Jan-19 04:23 35.103091 -120.624062 213 15ft 0kts
12-Jan-19 04:24 35.103091 -120.624062 213 15ft 0kts
12-Jan-19 04:25 35.103091 -120.624062 213 15ft 0kts
12-Jan-19 04:26 35.103091 -120.624062 213 15ft 0kts
12-Jan-19 04:27 35.103091 -120.624062 213 15ft 0kts
12-Jan-19 04:28 35.103091 -120.624062 213 15ft 0kts
12-Jan-19 04:29 35.103091 -120.624062 213 15ft 0kts
12-Jan-19 04:30 35.103091 -120.624062 213 15ft 0kts
12-Jan-19 04:31 35.103076 -120.624068 188 15ft 0kts
12-Jan-19 04:32 35.102302 -120.624143 210 14ft 6kts
12-Jan-19 04:33 35.101584 -120.623249 126 14ft 0kts
12-Jan-19 04:34 35.101584 -120.623249 126 14ft 0kts
12-Jan-19 04:35 35.101584 -120.623249 126 14ft 0kts
12-Jan-19 04:36 35.101584 -120.623249 126 14ft 0kts
12-Jan-19 04:37 35.100327 -120.620953 123 17ft 19kts
12-Jan-19 04:38 35.103138 -120.625423 295 153ft 67kts
12-Jan-19 04:39 35.112071 -120.628344 139 893ft 83kts
12-Jan-19 04:40 35.097711 -120.608013 93 1716ft 83kts
12-Jan-19 04:41 35.092502 -120.581241 83 2487ft 83kts
12-Jan-19 04:42 35.091301 -120.553036 98 3207ft 83kts
12-Jan-19 04:43 35.087043 -120.525093 100 3867ft 85kts
12-Jan-19 04:44 35.082274 -120.496675 101 4489ft 85kts
12-Jan-19 04:45 35.077408 -120.468035 101 5079ft 86kts
12-Jan-19 04:46 35.072477 -120.439102 101 5633ft 87kts
12-Jan-19 04:47 35.067513 -120.410028 101 6149ft 88kts
12-Jan-19 04:48 35.062758 -120.377648 97 6378ft 103kts
12-Jan-19 04:49 35.057118 -120.343608 107 6570ft 107kts
12-Jan-19 04:50 35.049842 -120.306774 102 6568ft 114kts
12-Jan-19 04:51 35.043210 -120.268467 101 6567ft 115kts
12-Jan-19 04:52 35.036602 -120.230060 101 6567ft 115kts
12-Jan-19 04:53 35.030786 -120.196157 101 7089ft 86kts
12-Jan-19 04:54 35.026395 -120.170561 101 7556ft 84kts
12-Jan-19 04:55 35.020377 -120.135960 102 7542ft 115kts
12-Jan-19 04:56 35.013630 -120.097112 101 7540ft 117kts
12-Jan-19 04:57 35.006879 -120.058214 101 7540ft 117kts
12-Jan-19 04:58 35.000408 -120.020990 101 7540ft 117kts
12-Jan-19 04:59 34.993696 -119.983757 102 7540ft 117kts
12-Jan-19 05:00 34.986671 -119.944843 101 7540ft 117kts
12-Jan-19 05:01 34.979855 -119.905925 101 7540ft 117kts
12-Jan-19 05:02 34.972981 -119.866736 102 7412ft 120kts
12-Jan-19 05:03 34.966125 -119.827796 102 6924ft 114kts
12-Jan-19 05:04 34.956935 -119.791519 113 6361ft 112kts
12-Jan-19 05:05 34.944628 -119.756812 113 5624ft 111kts
12-Jan-19 05:06 34.932181 -119.721881 113 4677ft 113kts
12-Jan-19 05:07 34.920031 -119.687901 113 3820ft 102kts
12-Jan-19 05:08 34.927139 -119.667305 5 3204ft 85kts
12-Jan-19 05:09 34.941204 -119.688601 296 2163ft 56kts
12-Jan-19 05:10 34.943049 -119.690860 86 2155ft 0kts
12-Jan-19 05:11 34.943007 -119.690795 209 2155ft 0kts
12-Jan-19 05:12 34.943007 -119.690795 209 2155ft 0kts
12-Jan-19 05:13 34.943007 -119.690795 209 2155ft 0kts

Navigation Log

Ident Type
Flight plan parsing failed, navigation log unavailable